Time;durP1;ratioP1;P1;durP2;ratioP2;P2;SDS_P1;SDS_P2;PMS_P1;PMS_P2;Temp;Humidity;BMP_temperature;BMP_pressure;BME280_temperature;BME280_humidity;BME280_pressure;Samples;Min_cycle;Max_cycle;Signal;HPM_P1;HPM_P2
2023/10/13 00:02:07;;;;;;;2.40;1.70;;;23.50;55.60;;;;;;4998514;28;20370;-66
2023/10/13 00:04:35;;;;;;;2.47;1.63;;;23.50;55.60;;;;;;4997571;28;20095;-68
2023/10/13 00:07:02;;;;;;;2.33;1.65;;;23.50;55.60;;;;;;5002169;28;20113;-67
2023/10/13 00:09:37;;;;;;;2.83;1.80;;;23.50;55.60;;;;;;5002572;28;20474;-68
2023/10/13 00:12:13;;;;;;;2.60;1.77;;;23.50;55.60;;;;;;5001930;28;20505;-68
2023/10/13 00:14:41;;;;;;;2.42;1.70;;;23.50;55.60;;;;;;5005949;28;20121;-68
2023/10/13 00:17:08;;;;;;;2.28;1.60;;;23.50;55.60;;;;;;5000314;28;20029;-68
2023/10/13 00:19:44;;;;;;;2.47;1.60;;;23.50;55.60;;;;;;5000969;28;20018;-68
2023/10/13 00:22:10;;;;;;;2.55;1.80;;;23.50;55.60;;;;;;5001203;28;20036;-68
2023/10/13 00:24:45;;;;;;;2.60;1.70;;;23.50;55.60;;;;;;5000270;28;20026;-66
2023/10/13 00:30:23;;;;;;;2.67;1.83;;;23.50;55.60;;;;;;5003905;28;20037;-66
2023/10/13 00:32:57;;;;;;;2.42;1.58;;;23.50;55.60;;;;;;5001589;28;20026;-66
2023/10/13 00:35:36;;;;;;;2.55;1.70;;;23.50;55.60;;;;;;5000253;28;20096;-66
2023/10/13 00:38:16;;;;;;;;;;;23.40;55.60;;;;;;5003845;28;20022;-66
2023/10/13 00:40:52;;;;;;;2.30;1.70;;;23.50;55.70;;;;;;5000247;28;19982;-66
2023/10/13 00:45:56;;;;;;;3.13;1.73;;;23.50;55.60;;;;;;5001943;28;20061;-63
2023/10/13 00:48:28;;;;;;;2.28;1.40;;;23.40;55.60;;;;;;5000841;28;20021;-62
2023/10/13 00:51:02;;;;;;;2.15;1.50;;;23.40;55.60;;;;;;5001300;28;20706;-64
2023/10/13 00:53:29;;;;;;;2.45;1.70;;;23.40;55.60;;;;;;4998912;28;20493;-63
2023/10/13 00:56:05;;;;;;;2.35;1.45;;;23.40;55.60;;;;;;5000740;28;20741;-62
2023/10/13 00:58:33;;;;;;;2.40;1.60;;;23.40;55.60;;;;;;5000784;28;20018;-63
2023/10/13 01:01:17;;;;;;;1.98;1.50;;;23.40;55.60;;;;;;5001516;28;20053;-65
2023/10/13 01:03:55;;;;;;;2.25;1.50;;;23.40;55.60;;;;;;5000094;28;20044;-63
2023/10/13 01:06:25;;;;;;;3.13;1.60;;;23.40;55.70;;;;;;4999465;28;20532;-63
2023/10/13 01:09:12;;;;;;;2.50;1.60;;;23.40;55.60;;;;;;4999744;28;20027;-63
2023/10/13 01:11:43;;;;;;;2.03;1.50;;;23.40;55.70;;;;;;5001517;28;20034;-63
2023/10/13 01:14:11;;;;;;;2.42;1.50;;;23.40;55.70;;;;;;5000988;28;20481;-64
2023/10/13 01:16:43;;;;;;;2.28;1.52;;;23.40;55.70;;;;;;5014597;28;20057;-63
2023/10/13 01:19:12;;;;;;;2.50;1.65;;;23.40;55.70;;;;;;5002592;28;20034;-64
2023/10/13 01:21:40;;;;;;;2.25;1.60;;;23.40;55.70;;;;;;5000848;28;20432;-64
2023/10/13 01:24:07;;;;;;;2.25;1.55;;;23.40;55.70;;;;;;5000799;28;20034;-65
2023/10/13 01:26:38;;;;;;;2.50;1.70;;;23.40;55.70;;;;;;5002032;28;20064;-62
2023/10/13 01:29:11;;;;;;;2.08;1.55;;;23.40;55.70;;;;;;5002215;28;20076;-64
2023/10/13 01:31:45;;;;;;;2.38;1.50;;;23.30;55.70;;;;;;4999165;28;20035;-64
2023/10/13 01:34:19;;;;;;;2.78;1.60;;;23.40;55.70;;;;;;5000893;28;20037;-68
2023/10/13 01:36:45;;;;;;;2.28;1.58;;;23.40;55.70;;;;;;5000214;28;20045;-68
2023/10/13 01:39:11;;;;;;;2.20;1.50;;;23.40;55.70;;;;;;5015577;28;20018;-68
2023/10/13 01:41:40;;;;;;;2.00;1.40;;;23.40;55.70;;;;;;5000956;28;20105;-68
2023/10/13 01:44:05;;;;;;;2.35;1.50;;;23.30;55.70;;;;;;5000590;28;20156;-68
2023/10/13 01:46:32;;;;;;;2.28;1.40;;;23.30;55.70;;;;;;5000663;28;20037;-68
2023/10/13 01:48:58;;;;;;;2.20;1.40;;;23.30;55.70;;;;;;4999723;28;20309;-68
2023/10/13 01:51:23;;;;;;;2.50;1.42;;;23.30;55.70;;;;;;5000133;28;20062;-68
2023/10/13 01:53:56;;;;;;;2.10;1.42;;;23.30;55.70;;;;;;4999751;28;20037;-62
2023/10/13 01:56:23;;;;;;;2.17;1.58;;;23.30;55.70;;;;;;5000089;28;20030;-63
2023/10/13 01:58:49;;;;;;;2.80;1.70;;;23.30;55.70;;;;;;5001840;28;20034;-64
2023/10/13 02:01:26;;;;;;;2.35;1.58;;;23.30;55.70;;;;;;4999435;28;20470;-63
2023/10/13 02:04:02;;;;;;;1.98;1.40;;;23.30;55.70;;;;;;4997375;28;20534;-62
2023/10/13 02:06:32;;;;;;;2.30;1.60;;;23.30;55.70;;;;;;4999780;28;20030;-63
2023/10/13 02:09:10;;;;;;;1.88;1.30;;;23.30;55.70;;;;;;5000036;28;20484;-63
2023/10/13 02:11:39;;;;;;;2.42;1.60;;;23.30;55.70;;;;;;5000990;28;20029;-64
2023/10/13 02:14:04;;;;;;;2.50;1.50;;;23.30;55.70;;;;;;4999856;28;20025;-63
2023/10/13 02:16:31;;;;;;;1.70;1.25;;;23.30;55.70;;;;;;4999000;28;20030;-62
2023/10/13 02:19:03;;;;;;;2.20;1.40;;;23.30;55.70;;;;;;5014004;28;20474;-64
2023/10/13 02:21:31;;;;;;;2.13;1.52;;;23.30;55.70;;;;;;5001510;28;20030;-64
2023/10/13 02:24:03;;;;;;;2.08;1.33;;;23.30;55.70;;;;;;4999901;28;20398;-68
2023/10/13 02:26:32;;;;;;;2.42;1.50;;;23.30;55.70;;;;;;5002714;28;20026;-67
2023/10/13 02:29:07;;;;;;;2.13;1.45;;;23.30;55.70;;;;;;5000982;28;20041;-67
2023/10/13 02:31:37;;;;;;;1.88;1.40;;;23.30;55.70;;;;;;5005983;28;20030;-67
2023/10/13 02:34:09;;;;;;;2.47;1.83;;;23.30;55.80;;;;;;4997576;28;20085;-67
2023/10/13 02:36:51;;;;;;;2.42;1.40;;;23.30;55.70;;;;;;4999306;28;20480;-68
2023/10/13 02:39:24;;;;;;;2.45;1.70;;;23.30;55.70;;;;;;4998947;28;20390;-67
2023/10/13 02:41:50;;;;;;;2.42;1.48;;;23.20;55.70;;;;;;5015215;28;20109;-68
2023/10/13 02:44:33;;;;;;;2.30;1.45;;;23.30;55.70;;;;;;4998967;28;20493;-67
2023/10/13 02:46:59;;;;;;;1.95;1.40;;;23.20;55.70;;;;;;5000385;28;20041;-68
2023/10/13 02:49:31;;;;;;;2.55;1.60;;;23.20;55.70;;;;;;4997489;28;20079;-68
2023/10/13 02:51:59;;;;;;;3.42;1.50;;;23.20;55.70;;;;;;5014220;28;20073;-67
2023/10/13 02:54:30;;;;;;;2.20;1.35;;;23.20;55.70;;;;;;4997867;28;20543;-67
2023/10/13 02:57:04;;;;;;;2.80;1.50;;;23.20;55.70;;;;;;5001777;28;20022;-68
2023/10/13 02:59:38;;;;;;;2.33;1.40;;;23.20;55.70;;;;;;5000912;28;20026;-68
2023/10/13 03:02:17;;;;;;;2.05;1.40;;;23.20;55.70;;;;;;4999264;28;20113;-68
2023/10/13 03:04:59;;;;;;;2.20;1.20;;;23.20;55.70;;;;;;4997411;28;20030;-65
2023/10/13 03:07:30;;;;;;;2.28;1.52;;;23.20;55.70;;;;;;4999586;28;20041;-65
2023/10/13 03:09:59;;;;;;;2.10;1.33;;;23.20;55.70;;;;;;4997664;28;20030;-65
2023/10/13 03:12:25;;;;;;;2.00;1.42;;;23.20;55.70;;;;;;4998337;28;20030;-65
2023/10/13 03:15:12;;;;;;;3.00;1.60;;;23.20;55.70;;;;;;4999660;28;20398;-65
2023/10/13 03:17:43;;;;;;;1.95;1.30;;;23.20;55.70;;;;;;4998899;28;20034;-65
2023/10/13 03:20:12;;;;;;;2.03;1.40;;;23.20;55.80;;;;;;4998979;28;20466;-65
2023/10/13 03:22:37;;;;;;;2.05;1.40;;;23.20;55.70;;;;;;4998738;28;20041;-65
2023/10/13 03:25:08;;;;;;;2.17;1.52;;;23.20;55.70;;;;;;5000776;28;20030;-65
2023/10/13 03:27:41;;;;;;;2.38;1.55;;;23.20;55.70;;;;;;4998848;28;20033;-65
2023/10/13 03:30:15;;;;;;;2.30;1.40;;;23.20;55.70;;;;;;4997802;28;20031;-65
2023/10/13 03:33:06;;;;;;;2.55;1.30;;;23.20;55.70;;;;;;4997003;28;20033;-65
2023/10/13 03:35:37;;;;;;;2.38;1.50;;;23.20;55.70;;;;;;4997934;28;20062;-62
2023/10/13 03:38:03;;;;;;;1.75;1.30;;;23.20;55.70;;;;;;4999753;28;20036;-62
2023/10/13 03:43:04;;;;;;;2.25;1.50;;;23.20;56.20;;;;;;5003392;28;20109;-63
2023/10/13 03:45:41;;;;;;;2.25;1.40;;;23.10;55.70;;;;;;5004530;28;20021;-61
2023/10/13 03:48:21;;;;;;;1.98;1.50;;;23.20;55.70;;;;;;5001347;28;20358;-63
2023/10/13 03:51:06;;;;;;;2.15;1.50;;;23.20;55.70;;;;;;5001779;28;20117;-61
2023/10/13 03:53:50;;;;;;;2.10;1.48;;;23.20;55.70;;;;;;5003311;28;20033;-62
2023/10/13 03:56:23;;;;;;;2.95;1.50;;;23.20;55.70;;;;;;5003444;28;20113;-62
2023/10/13 03:58:49;;;;;;;2.00;1.45;;;23.20;55.70;;;;;;5001611;28;20118;-62
2023/10/13 04:01:17;;;;;;;1.92;1.50;;;23.20;55.70;;;;;;5001633;28;20026;-62
2023/10/13 04:04:03;;;;;;;1.70;1.30;;;23.20;55.70;;;;;;5002249;28;20076;-62
2023/10/13 04:17:15;;;;;;;2.55;1.40;;;23.10;55.80;;;;;;5002194;28;20037;-67
2023/10/13 04:23:18;;;;;;;1.90;1.40;;;23.10;55.90;;;;;;5002711;28;20034;-68
2023/10/13 04:25:35;;;;;;;2.20;1.42;;;23.10;56.00;;;;;;5002046;28;20076;-68
2023/10/13 04:36:16;;;;;;;2.30;1.60;;;23.10;56.10;;;;;;5000228;28;20038;-67
2023/10/13 04:38:56;;;;;;;2.50;1.58;;;23.10;56.10;;;;;;5002726;28;20160;-67
2023/10/13 04:41:57;;;;;;;2.40;1.65;;;23.10;56.10;;;;;;5002539;28;20022;-67
2023/10/13 04:45:27;;;;;;;2.30;1.73;;;23.10;56.10;;;;;;5003464;28;20105;-68
2023/10/13 04:47:17;;;;;;;2.03;1.50;;;23.10;56.10;;;;;;4998843;28;20124;-66
2023/10/13 04:52:15;;;;;;;2.25;1.60;;;23.10;56.10;;;;;;4999292;28;20041;-66
2023/10/13 04:54:49;;;;;;;3.13;1.70;;;23.10;56.10;;;;;;5000184;28;20461;-67
2023/10/13 06:30:04;;;;;;;3.58;2.10;;;23.30;56.20;;;;;;5002956;28;20159;-67
2023/10/13 06:32:30;;;;;;;3.10;1.83;;;23.30;56.10;;;;;;5002272;28;20034;-66
2023/10/13 06:38:00;;;;;;;2.50;1.90;;;23.40;56.10;;;;;;4998084;28;20502;-69
2023/10/13 06:40:25;;;;;;;2.88;2.00;;;23.40;56.60;;;;;;4999215;28;20474;-69
2023/10/13 06:42:55;;;;;;;3.10;2.10;;;23.40;56.00;;;;;;5002612;28;20034;-68
2023/10/13 06:45:21;;;;;;;3.03;2.00;;;23.40;56.00;;;;;;5004965;28;20038;-68
2023/10/13 06:47:52;;;;;;;2.40;1.70;;;23.40;55.90;;;;;;5001354;28;20042;-69
2023/10/13 06:50:24;;;;;;;3.17;1.88;;;23.40;55.90;;;;;;5000964;28;20026;-69
2023/10/13 06:52:50;;;;;;;2.40;1.70;;;23.40;56.00;;;;;;4999202;28;20056;-69
2023/10/13 06:55:17;;;;;;;2.95;1.80;;;23.40;56.00;;;;;;5000728;28;20343;-69
2023/10/13 06:57:46;;;;;;;2.85;1.90;;;23.40;56.10;;;;;;5001043;28;20026;-69
2023/10/13 07:00:29;;;;;;;2.72;1.90;;;23.40;56.00;;;;;;5003288;28;20072;-69
2023/10/13 07:03:17;;;;;;;5.25;2.20;;;23.50;56.00;;;;;;5009142;28;20029;-69
2023/10/13 07:05:43;;;;;;;3.53;2.03;;;23.50;55.90;;;;;;5001180;28;20483;-64
2023/10/13 07:08:14;;;;;;;2.72;2.05;;;23.50;55.90;;;;;;4997272;28;20129;-64
2023/10/13 07:10:52;;;;;;;3.00;1.98;;;23.50;55.80;;;;;;4999138;28;20033;-64
2023/10/13 07:13:19;;;;;;;2.80;2.25;;;23.50;55.70;;;;;;4997942;28;20436;-64
2023/10/13 07:15:45;;;;;;;3.40;2.03;;;23.50;55.70;;;;;;4999229;28;20026;-64
2023/10/13 07:18:17;;;;;;;2.90;2.10;;;23.60;55.80;;;;;;4998117;28;20030;-64
2023/10/13 07:20:46;;;;;;;3.50;2.30;;;23.60;55.80;;;;;;4998695;28;20125;-64
2023/10/13 07:23:19;;;;;;;3.28;2.10;;;23.60;55.80;;;;;;4998339;28;20028;-64
2023/10/13 07:26:02;;;;;;;3.50;2.30;;;23.60;55.80;;;;;;5000067;28;20491;-66
2023/10/13 07:28:36;;;;;;;3.47;2.10;;;23.60;55.70;;;;;;5014767;28;20026;-67
2023/10/13 07:33:31;;;;;;;3.20;2.33;;;23.60;55.60;;;;;;4999653;28;20026;-66
2023/10/13 07:36:01;;;;;;;3.15;2.22;;;23.70;55.70;;;;;;4998249;28;20494;-67
2023/10/13 07:38:30;;;;;;;2.65;1.83;;;23.60;55.70;;;;;;4999726;28;20113;-66
2023/10/13 07:41:06;;;;;;;3.20;2.30;;;23.70;55.80;;;;;;4999855;28;20061;-67
2023/10/13 07:43:32;;;;;;;3.67;1.90;;;23.70;55.70;;;;;;5004831;28;20022;-67
2023/10/13 07:45:59;;;;;;;3.10;1.85;;;23.70;55.80;;;;;;5001318;28;20030;-67
2023/10/13 07:48:25;;;;;;;3.40;2.30;;;23.70;55.70;;;;;;5003698;28;20026;-66
2023/10/13 07:51:05;;;;;;;2.90;2.10;;;23.70;55.80;;;;;;5014554;28;20378;-66
2023/10/13 07:53:40;;;;;;;2.90;2.08;;;23.70;56.30;;;;;;5000184;28;20026;-66
2023/10/13 07:56:11;;;;;;;3.17;2.10;;;23.70;55.70;;;;;;5000850;28;20490;-67
2023/10/13 07:58:52;;;;;;;2.83;1.90;;;23.70;55.80;;;;;;4999370;28;20053;-66
2023/10/13 08:01:21;;;;;;;3.85;2.00;;;23.70;55.90;;;;;;5005412;28;20091;-67
2023/10/13 08:03:49;;;;;;;2.42;1.80;;;23.70;55.90;;;;;;5001698;28;20049;-66
2023/10/13 08:08:49;;;;;;;2.50;1.80;;;23.70;55.80;;;;;;4999353;28;20034;-67
2023/10/13 08:13:58;;;;;;;4.35;1.80;;;23.80;55.80;;;;;;5000151;28;20034;-67
2023/10/13 08:16:45;;;;;;;2.72;1.70;;;23.80;55.80;;;;;;4998309;28;20110;-61
2023/10/13 08:19:17;;;;;;;3.05;1.83;;;23.80;55.80;;;;;;4999507;28;20530;-62
2023/10/13 08:21:51;;;;;;;3.03;1.90;;;23.80;56.10;;;;;;4997876;28;20027;-62
2023/10/13 08:42:40;;;;;;;2.70;1.80;;;23.90;55.60;;;;;;5003031;28;20031;-63
2023/10/13 08:48:14;;;;;;;2.58;1.63;;;23.90;55.80;;;;;;5004221;28;20053;-61
2023/10/13 08:50:52;;;;;;;2.33;1.60;;;23.90;55.60;;;;;;5002262;28;20022;-63
2023/10/13 09:01:13;;;;;;;3.45;1.85;;;24.00;55.50;;;;;;5004391;28;20401;-70
2023/10/13 09:03:41;;;;;;;2.65;1.75;;;24.00;55.50;;;;;;5004025;28;20104;-70
2023/10/13 09:06:14;;;;;;;3.28;1.52;;;24.00;55.50;;;;;;5001874;28;20103;-68
2023/10/13 09:11:27;;;;;;;2.90;1.90;;;24.10;55.40;;;;;;5012783;28;20080;-68
2023/10/13 09:13:53;;;;;;;2.42;1.63;;;24.10;55.40;;;;;;5004875;28;20029;-69
2023/10/13 09:17:07;;;;;;;3.25;1.80;;;24.10;55.50;;;;;;5003228;28;20107;-69
2023/10/13 09:19:11;;;;;;;3.00;1.80;;;24.10;55.60;;;;;;5005325;28;20064;-70
2023/10/13 09:24:17;;;;;;;2.30;1.65;;;24.10;55.40;;;;;;5008129;28;20058;-69
2023/10/13 09:26:44;;;;;;;4.32;1.80;;;24.10;55.90;;;;;;5001313;28;20034;-68
2023/10/13 09:29:18;;;;;;;3.03;1.80;;;24.10;55.40;;;;;;5000492;28;20066;-68
2023/10/13 09:31:48;;;;;;;2.83;1.80;;;24.10;55.40;;;;;;5003035;28;20393;-68
2023/10/13 09:34:23;;;;;;;2.85;2.00;;;24.10;55.50;;;;;;5002416;28;20026;-68
2023/10/13 09:36:55;;;;;;;4.47;1.67;;;24.10;55.40;;;;;;4999847;28;20038;-68
2023/10/13 09:42:23;;;;;;;3.05;1.90;;;24.20;55.50;;;;;;5006353;28;20038;-69
2023/10/13 09:44:58;;;;;;;2.30;1.67;;;24.20;55.50;;;;;;5002675;28;20034;-68
2023/10/13 09:47:30;;;;;;;2.47;1.73;;;24.20;55.30;;;;;;5001511;28;20027;-68
2023/10/13 09:50:03;;;;;;;3.15;1.85;;;24.20;55.30;;;;;;5000861;28;20363;-68
2023/10/13 09:52:30;;;;;;;2.60;1.77;;;24.20;55.30;;;;;;4998181;28;20045;-67
2023/10/13 09:55:18;;;;;;;3.33;1.70;;;24.20;55.20;;;;;;4999270;28;20026;-68
2023/10/13 09:57:57;;;;;;;3.10;1.60;;;24.20;55.10;;;;;;4999299;28;20030;-67
2023/10/13 10:02:58;;;;;;;2.20;1.50;;;24.20;55.20;;;;;;4998846;28;20030;-67
2023/10/13 10:05:25;;;;;;;2.60;1.63;;;24.30;55.30;;;;;;4997447;28;20030;-65
2023/10/13 10:07:58;;;;;;;2.40;1.60;;;24.30;55.30;;;;;;4998264;28;20026;-64
2023/10/13 10:10:44;;;;;;;3.60;1.70;;;24.30;55.20;;;;;;4996204;28;20451;-63
2023/10/13 10:13:35;;;;;;;3.53;1.80;;;24.30;55.20;;;;;;4999189;28;20490;-63
2023/10/13 10:16:19;;;;;;;3.03;1.67;;;24.30;55.00;;;;;;5002429;28;20033;-63
2023/10/13 10:18:45;;;;;;;4.03;1.77;;;24.30;55.10;;;;;;5000222;28;20041;-64
2023/10/13 10:21:11;;;;;;;3.40;1.55;;;24.30;55.10;;;;;;4997103;28;20031;-63
2023/10/13 10:23:43;;;;;;;3.65;1.80;;;24.40;55.10;;;;;;4998807;28;20025;-63
2023/10/13 10:26:22;;;;;;;2.60;1.60;;;24.40;55.10;;;;;;5000164;28;20029;-63
2023/10/13 10:28:48;;;;;;;4.78;1.77;;;24.40;54.90;;;;;;5001202;28;20069;-63
2023/10/13 10:31:17;;;;;;;2.42;1.65;;;24.40;54.70;;;;;;5000139;28;20045;-63
2023/10/13 10:33:44;;;;;;;2.60;1.70;;;24.50;54.90;;;;;;5000331;28;20553;-64
2023/10/13 10:36:16;;;;;;;3.22;1.65;;;24.50;54.90;;;;;;4998253;28;20152;-67
2023/10/13 10:39:04;;;;;;;1.92;1.45;;;24.50;54.90;;;;;;4998564;28;20026;-67
2023/10/13 10:41:40;;;;;;;2.85;1.63;;;24.50;54.90;;;;;;5000375;28;20028;-67
2023/10/13 10:44:23;;;;;;;3.20;1.60;;;24.50;54.80;;;;;;4998779;28;20492;-67
2023/10/13 10:46:52;;;;;;;3.47;1.60;;;24.50;54.60;;;;;;5001111;28;20560;-67
2023/10/13 10:49:27;;;;;;;2.97;1.63;;;24.50;54.80;;;;;;5002265;28;20027;-67
2023/10/13 10:52:01;;;;;;;2.70;1.52;;;24.60;54.70;;;;;;4996211;28;20418;-67
2023/10/13 10:54:33;;;;;;;2.20;1.50;;;24.60;54.80;;;;;;4997079;28;20056;-65
2023/10/13 10:57:19;;;;;;;2.47;1.48;;;24.60;54.70;;;;;;4996715;28;20503;-63
2023/10/13 10:59:46;;;;;;;2.63;1.60;;;24.60;54.60;;;;;;5000557;28;20614;-63
2023/10/13 11:02:27;;;;;;;3.50;1.55;;;24.60;54.70;;;;;;4996340;28;20081;-63
2023/10/13 11:04:53;;;;;;;2.80;1.90;;;24.60;54.80;;;;;;4999547;28;20050;-63
2023/10/13 11:07:27;;;;;;;2.33;1.50;;;24.70;55.00;;;;;;4998382;28;20030;-64
2023/10/13 11:09:57;;;;;;;3.15;1.80;;;24.70;54.80;;;;;;5000600;28;20038;-63
2023/10/13 11:12:26;;;;;;;2.25;1.40;;;24.70;54.70;;;;;;4998777;28;20064;-63
2023/10/13 11:15:33;;;;;;;2.10;1.30;;;24.70;54.70;;;;;;4999904;28;20053;-63
2023/10/13 11:17:59;;;;;;;2.70;1.50;;;24.70;54.80;;;;;;4997623;28;20124;-64
2023/10/13 11:20:33;;;;;;;4.15;1.60;;;24.70;54.70;;;;;;4999307;28;20164;-64
2023/10/13 11:22:59;;;;;;;3.10;1.50;;;24.70;54.80;;;;;;4997953;28;20036;-64
2023/10/13 11:25:34;;;;;;;4.35;1.67;;;24.80;54.80;;;;;;4998130;28;20018;-64
2023/10/13 11:28:27;;;;;;;2.78;1.63;;;24.80;54.70;;;;;;4997503;28;20066;-63
2023/10/13 11:30:58;;;;;;;3.00;1.70;;;24.80;54.70;;;;;;4999436;28;20371;-63
2023/10/13 11:33:31;;;;;;;2.30;1.50;;;24.80;54.70;;;;;;4996942;28;20026;-65
2023/10/13 11:36:01;;;;;;;2.22;1.42;;;24.80;54.70;;;;;;4998099;28;20533;-64
2023/10/13 11:41:14;;;;;;;1.67;1.23;;;24.80;54.60;;;;;;4997912;28;20097;-64
2023/10/13 11:46:55;;;;;;;2.13;1.30;;;24.80;54.60;;;;;;5001758;28;20029;-64
2023/10/13 11:51:44;;;;;;;2.63;1.50;;;24.90;54.80;;;;;;4996186;28;20482;-63
2023/10/13 11:54:17;;;;;;;3.63;1.70;;;24.90;54.80;;;;;;4998296;28;20450;-64
2023/10/13 11:56:44;;;;;;;3.78;1.50;;;24.90;54.80;;;;;;4996192;28;20468;-64
2023/10/13 11:59:24;;;;;;;2.65;1.50;;;24.90;54.80;;;;;;4997317;28;20033;-65
2023/10/13 12:07:21;;;;;;;2.10;1.30;;;24.90;54.80;;;;;;4999563;28;20022;-63
2023/10/13 12:10:02;;;;;;;2.17;1.55;;;24.90;54.60;;;;;;5003168;28;20434;-62
2023/10/13 12:12:30;;;;;;;2.50;1.40;;;24.90;54.60;;;;;;5000878;28;20033;-62
2023/10/13 12:14:56;;;;;;;2.47;1.55;;;25.00;54.70;;;;;;5003674;28;20120;-62
2023/10/13 12:17:28;;;;;;;2.58;1.58;;;25.00;54.60;;;;;;5002614;28;20229;-62
2023/10/13 12:19:58;;;;;;;2.33;1.30;;;25.00;54.50;;;;;;5003578;28;20045;-64
2023/10/13 12:22:28;;;;;;;2.05;1.25;;;25.00;54.40;;;;;;5001747;28;20165;-64
2023/10/13 12:24:57;;;;;;;1.83;1.20;;;25.00;54.40;;;;;;5001124;28;20029;-62
2023/10/13 12:27:35;;;;;;;2.50;1.30;;;25.00;54.30;;;;;;5000775;28;20101;-61
2023/10/13 12:30:07;;;;;;;2.50;1.40;;;25.00;54.20;;;;;;5003180;28;20045;-62
2023/10/13 12:32:34;;;;;;;2.45;1.50;;;25.00;54.30;;;;;;5001456;28;20133;-62
2023/10/13 12:51:19;;;;;;;2.08;1.45;;;25.10;54.00;;;;;;5001878;28;20036;-64
2023/10/13 12:53:46;;;;;;;2.28;1.42;;;25.10;54.00;;;;;;5000840;28;20041;-64
2023/10/13 12:56:12;;;;;;;1.85;1.20;;;25.10;54.00;;;;;;5003018;28;20041;-65
2023/10/13 12:58:37;;;;;;;2.40;1.38;;;25.10;54.00;;;;;;5002469;28;20438;-65
2023/10/13 13:01:06;;;;;;;2.20;1.33;;;25.10;54.00;;;;;;5001228;28;20040;-65
2023/10/13 13:03:32;;;;;;;2.20;1.50;;;25.10;54.10;;;;;;5002439;28;20025;-65
2023/10/13 13:05:58;;;;;;;2.60;1.48;;;25.10;54.00;;;;;;5000427;28;20030;-65
2023/10/13 13:08:24;;;;;;;2.47;1.20;;;25.10;53.80;;;;;;4998753;28;20592;-64
2023/10/13 13:10:51;;;;;;;2.35;1.42;;;25.10;53.70;;;;;;5000523;28;20038;-66
2023/10/13 13:13:24;;;;;;;2.40;1.50;;;25.10;53.80;;;;;;5001471;28;20026;-64
2023/10/13 13:15:50;;;;;;;2.42;1.35;;;25.10;53.80;;;;;;5001165;28;20029;-67
2023/10/13 13:18:16;;;;;;;1.83;1.20;;;25.10;53.90;;;;;;4998355;28;20084;-69
2023/10/13 13:20:53;;;;;;;2.35;1.33;;;25.10;53.80;;;;;;4999651;28;20034;-67
2023/10/13 13:23:19;;;;;;;2.40;1.30;;;25.10;53.80;;;;;;5001341;28;20022;-68
2023/10/13 13:25:48;;;;;;;2.97;1.20;;;25.10;54.00;;;;;;5000909;28;20117;-68
2023/10/13 13:28:15;;;;;;;1.90;1.40;;;25.10;53.90;;;;;;5001162;28;20036;-68
2023/10/13 13:30:44;;;;;;;2.08;1.35;;;25.10;53.80;;;;;;5003400;28;20026;-68
2023/10/13 13:33:12;;;;;;;1.95;1.30;;;25.10;53.80;;;;;;5002596;28;20034;-68
2023/10/13 13:35:42;;;;;;;1.83;1.10;;;25.10;53.80;;;;;;5000391;28;20054;-68
2023/10/13 13:41:09;;;;;;;1.70;1.10;;;25.10;53.90;;;;;;5000219;28;20038;-69
2023/10/13 13:43:37;;;;;;;2.30;1.27;;;25.10;54.00;;;;;;5001502;28;20041;-68
2023/10/13 13:46:09;;;;;;;2.20;1.30;;;25.10;54.00;;;;;;5000675;28;20073;-69
2023/10/13 13:48:36;;;;;;;2.08;1.20;;;25.10;54.00;;;;;;5000876;28;20760;-68
2023/10/13 13:51:41;;;;;;;2.20;1.20;;;25.10;53.90;;;;;;5000313;28;20034;-68
2023/10/13 13:54:00;;;;;;;1.85;1.10;;;25.10;53.90;;;;;;4999847;28;20045;-68
2023/10/13 13:56:28;;;;;;;1.85;1.20;;;25.10;53.90;;;;;;4998913;28;20116;-67
2023/10/13 13:58:55;;;;;;;3.28;1.27;;;25.10;54.40;;;;;;5000162;28;20034;-68
2023/10/13 14:01:21;;;;;;;2.15;1.30;;;25.10;53.90;;;;;;5000320;28;20080;-68
2023/10/13 14:03:51;;;;;;;2.13;1.20;;;25.10;54.00;;;;;;5000186;28;20037;-69
2023/10/13 14:06:26;;;;;;;2.03;1.13;;;25.10;53.90;;;;;;5003439;28;20386;-65
2023/10/13 14:08:56;;;;;;;1.45;1.00;;;25.20;54.00;;;;;;4998300;28;20026;-65
2023/10/13 14:16:51;;;;;;;2.20;1.38;;;25.20;53.90;;;;;;4999468;28;20026;-65
2023/10/13 14:19:26;;;;;;;1.83;1.25;;;25.20;53.90;;;;;;5000083;28;20489;-65
2023/10/13 14:21:55;;;;;;;2.20;1.00;;;25.20;53.90;;;;;;5000534;28;20022;-66
2023/10/13 14:24:29;;;;;;;1.83;1.10;;;25.20;53.90;;;;;;4996050;28;20038;-66
2023/10/13 14:26:56;;;;;;;2.30;1.20;;;25.20;54.00;;;;;;4999114;28;20580;-69
2023/10/13 14:29:26;;;;;;;1.60;1.00;;;25.20;54.10;;;;;;4998205;28;20474;-69
2023/10/13 14:31:52;;;;;;;1.98;1.30;;;25.20;54.10;;;;;;5000547;28;20044;-70
2023/10/13 14:34:21;;;;;;;2.10;1.02;;;25.20;54.10;;;;;;5015784;28;20071;-71
2023/10/13 14:36:48;;;;;;;1.77;1.00;;;25.20;54.10;;;;;;5000971;28;20486;-69
2023/10/13 14:39:14;;;;;;;2.22;1.10;;;25.20;54.10;;;;;;4999405;28;20084;-70
2023/10/13 14:41:40;;;;;;;1.65;1.00;;;25.30;54.20;;;;;;5015558;28;20063;-69
2023/10/13 14:44:06;;;;;;;2.42;1.20;;;25.20;54.10;;;;;;4999265;28;20426;-70
2023/10/13 14:46:35;;;;;;;1.80;1.13;;;25.30;54.20;;;;;;4998745;28;20157;-68
2023/10/13 14:49:02;;;;;;;1.75;1.20;;;25.30;54.20;;;;;;4999477;28;20536;-67
2023/10/13 14:51:29;;;;;;;1.85;1.13;;;25.30;54.30;;;;;;4998065;28;20070;-68
2023/10/13 14:53:59;;;;;;;2.10;1.15;;;25.30;54.20;;;;;;4999343;28;20497;-69
2023/10/13 14:56:26;;;;;;;1.85;1.33;;;25.30;54.20;;;;;;5013877;28;20033;-68
2023/10/13 14:58:53;;;;;;;1.70;1.10;;;25.20;54.20;;;;;;4998981;28;20023;-68
2023/10/13 15:01:21;;;;;;;1.60;1.00;;;25.30;54.20;;;;;;4998617;28;20022;-69
2023/10/13 15:03:49;;;;;;;1.65;1.05;;;25.30;54.20;;;;;;4997894;28;20528;-67
2023/10/13 15:06:28;;;;;;;2.10;1.20;;;25.30;54.20;;;;;;5000018;28;20379;-69
2023/10/13 15:08:55;;;;;;;1.70;1.20;;;25.30;54.30;;;;;;4997300;28;20038;-69
2023/10/13 15:11:27;;;;;;;1.90;1.20;;;25.30;54.20;;;;;;4998107;28;20045;-70
2023/10/13 15:13:56;;;;;;;1.35;1.08;;;25.30;54.20;;;;;;4998329;28;20159;-70
2023/10/13 15:16:24;;;;;;;2.58;1.30;;;25.30;54.20;;;;;;4996843;28;20435;-65
2023/10/13 15:18:52;;;;;;;2.10;1.10;;;25.30;54.20;;;;;;4999596;28;20336;-65
2023/10/13 15:21:32;;;;;;;1.38;1.00;;;25.30;54.30;;;;;;4997789;28;20042;-65
2023/10/13 15:24:03;;;;;;;1.85;1.17;;;25.30;54.30;;;;;;4999945;28;20553;-66
2023/10/13 15:26:38;;;;;;;2.05;1.20;;;25.30;54.20;;;;;;4998357;28;20116;-67
2023/10/13 15:29:09;;;;;;;2.08;1.20;;;25.30;54.20;;;;;;4998947;28;20022;-65
2023/10/13 15:34:37;;;;;;;1.98;1.10;;;25.40;54.30;;;;;;4999360;28;20489;-65
2023/10/13 15:36:55;;;;;;;1.90;1.10;;;25.40;54.30;;;;;;4996758;28;20054;-70
2023/10/13 15:39:28;;;;;;;1.85;1.20;;;25.40;54.80;;;;;;4997914;28;20026;-68
2023/10/13 15:41:59;;;;;;;2.13;1.00;;;25.30;54.20;;;;;;4999499;28;20023;-69
2023/10/13 15:44:29;;;;;;;2.13;1.15;;;25.40;54.30;;;;;;4997556;28;20022;-69
2023/10/13 15:46:56;;;;;;;2.42;1.20;;;25.30;54.30;;;;;;4996934;28;20110;-70
2023/10/13 15:49:22;;;;;;;3.90;1.10;;;25.30;54.30;;;;;;4998848;28;20036;-68
2023/10/13 15:51:49;;;;;;;1.60;1.00;;;25.30;54.30;;;;;;5012664;28;20038;-70
2023/10/13 15:54:16;;;;;;;1.45;1.05;;;25.30;54.30;;;;;;4998669;28;20075;-69
2023/10/13 15:56:46;;;;;;;2.17;1.10;;;25.30;54.30;;;;;;5011149;28;20599;-68
2023/10/13 15:59:12;;;;;;;1.90;1.08;;;25.30;54.30;;;;;;4998333;28;20026;-67
2023/10/13 16:01:39;;;;;;;1.95;1.20;;;25.30;54.20;;;;;;4999944;28;20026;-69
2023/10/13 16:04:11;;;;;;;1.17;1.00;;;25.30;54.20;;;;;;4997217;28;20030;-68
2023/10/13 16:06:40;;;;;;;1.65;1.25;;;25.30;54.20;;;;;;4996445;28;20081;-68
2023/10/13 16:09:13;;;;;;;3.85;1.20;;;25.30;54.20;;;;;;4996565;28;20030;-68
2023/10/13 16:11:40;;;;;;;4.28;1.25;;;25.30;54.20;;;;;;5000490;28;20026;-68
2023/10/13 16:14:10;;;;;;;1.88;1.08;;;25.30;54.30;;;;;;5002009;28;20076;-68
2023/10/13 16:16:36;;;;;;;1.60;1.15;;;25.30;54.20;;;;;;5000289;28;20493;-67
2023/10/13 16:19:06;;;;;;;1.98;1.20;;;25.30;54.20;;;;;;4998338;28;20371;-68
2023/10/13 16:21:33;;;;;;;2.00;1.30;;;25.30;54.10;;;;;;5014432;28;20037;-69
2023/10/13 16:23:59;;;;;;;1.65;1.10;;;25.30;54.00;;;;;;4997087;28;20505;-69
2023/10/13 16:26:25;;;;;;;2.20;1.30;;;25.30;54.50;;;;;;4996931;28;20148;-69
2023/10/13 16:28:57;;;;;;;1.50;1.02;;;25.30;54.00;;;;;;4999437;28;20544;-69
2023/10/13 16:31:23;;;;;;;1.98;1.13;;;25.30;54.00;;;;;;5000681;28;20169;-70
2023/10/13 16:33:49;;;;;;;1.67;1.15;;;25.30;54.00;;;;;;4998523;28;20489;-71
2023/10/13 16:36:15;;;;;;;1.75;1.17;;;25.30;54.00;;;;;;4997216;28;20585;-70
2023/10/13 16:38:45;;;;;;;2.22;1.30;;;25.30;54.00;;;;;;4998256;28;20105;-70
2023/10/13 16:41:12;;;;;;;2.45;1.20;;;25.30;53.90;;;;;;4997896;28;20026;-70
2023/10/13 16:43:39;;;;;;;1.77;1.20;;;25.30;53.90;;;;;;4997298;28;20635;-71
2023/10/13 16:46:11;;;;;;;2.10;1.17;;;25.30;53.90;;;;;;5006695;28;20406;-70
2023/10/13 16:48:37;;;;;;;2.05;1.20;;;25.30;53.90;;;;;;5001501;28;20102;-70